createdAt,value
2023-04-16T00:00:29.661Z,0.4659
2023-04-16T00:01:33.561Z,0.4694
2023-04-16T00:02:37.624Z,0.4708
2023-04-16T00:03:41.815Z,0.4759
2023-04-16T00:04:45.863Z,0.4763
2023-04-16T00:05:49.746Z,0.4764
2023-04-16T00:06:53.655Z,0.4776
2023-04-16T00:07:57.530Z,0.4756
2023-04-16T00:09:01.414Z,0.4776
2023-04-16T00:10:05.333Z,0.4808
2023-04-16T00:11:09.193Z,0.4774
2023-04-16T00:12:13.083Z,0.4789
2023-04-16T00:13:16.985Z,0.4816
2023-04-16T00:14:20.877Z,0.4826
2023-04-16T00:15:24.784Z,0.4848
2023-04-16T00:16:28.995Z,0.4865
2023-04-16T00:17:32.963Z,0.4881
2023-04-16T00:18:36.841Z,0.4904
2023-04-16T00:19:40.742Z,0.4888
2023-04-16T00:20:44.615Z,0.4841
2023-04-16T00:21:48.754Z,0.4832
2023-04-16T00:22:52.652Z,0.4873
2023-04-16T00:23:56.745Z,0.4884
2023-04-16T00:25:00.646Z,0.4873
2023-04-16T00:26:04.555Z,0.4855
2023-04-16T00:27:08.440Z,0.4820
2023-04-16T00:28:12.350Z,0.4786
2023-04-16T00:29:16.236Z,0.4786
2023-04-16T00:30:20.132Z,0.4787
2023-04-16T00:31:24.350Z,0.4778
2023-04-16T00:32:28.379Z,0.4785
2023-04-16T00:33:32.287Z,0.4825
2023-04-16T00:34:32.496Z,0.4823
2023-04-16T00:35:36.392Z,0.4801
2023-04-16T00:36:40.329Z,0.4791
2023-04-16T00:37:44.206Z,0.4790
2023-04-16T00:38:48.320Z,0.4783
2023-04-16T00:39:52.231Z,0.4824
2023-04-16T00:40:56.100Z,0.4828
2023-04-16T00:41:59.995Z,0.4848
2023-04-16T00:43:03.875Z,0.4876
2023-04-16T00:44:07.791Z,0.4882
2023-04-16T00:45:11.676Z,0.4936
2023-04-16T00:46:15.610Z,0.4931
2023-04-16T00:47:19.484Z,0.4933
2023-04-16T00:48:23.378Z,0.4913
2023-04-16T00:49:27.278Z,0.4906
2023-04-16T00:50:31.160Z,0.4905
2023-04-16T00:51:35.060Z,0.4903
2023-04-16T00:52:38.936Z,0.4933
2023-04-16T00:53:42.838Z,0.4933
2023-04-16T00:54:46.720Z,0.4955
2023-04-16T00:55:50.634Z,0.4925
2023-04-16T00:56:54.503Z,0.4943
2023-04-16T00:57:58.410Z,0.4935
2023-04-16T00:59:02.328Z,0.4960
2023-04-16T01:00:06.227Z,0.4977
2023-04-16T01:01:10.138Z,0.4966
2023-04-16T01:02:14.108Z,0.4942
2023-04-16T01:03:18.038Z,0.4943
2023-04-16T01:04:22.020Z,0.4920
2023-04-16T01:05:25.898Z,0.4923
2023-04-16T01:06:29.804Z,0.4910
2023-04-16T01:07:33.690Z,0.4885
2023-04-16T01:08:37.597Z,0.4842
2023-04-16T01:09:41.520Z,0.4861
2023-04-16T01:10:45.410Z,0.4862
2023-04-16T01:11:49.310Z,0.4858
2023-04-16T01:12:53.202Z,0.4853
2023-04-16T01:13:57.105Z,0.4858
2023-04-16T01:15:00.995Z,0.4850
2023-04-16T01:16:04.960Z,0.4868
2023-04-16T01:17:09.039Z,0.4861
2023-04-16T01:18:12.967Z,0.4902
2023-04-16T01:19:16.814Z,0.4928
2023-04-16T01:20:20.713Z,0.4942
2023-04-16T01:21:24.588Z,0.4904
2023-04-16T01:22:28.507Z,0.4880
2023-04-16T01:23:32.371Z,0.4917
2023-04-16T01:24:36.287Z,0.4922
2023-04-16T01:25:40.157Z,0.4913
2023-04-16T01:26:44.058Z,0.4950
2023-04-16T01:27:47.936Z,0.4980
2023-04-16T01:28:52.157Z,0.4981
2023-04-16T01:29:56.052Z,0.5014
2023-04-16T01:30:59.946Z,0.5016
2023-04-16T01:32:04.139Z,0.5016
2023-04-16T01:33:08.031Z,0.4997
2023-04-16T01:34:11.937Z,0.5000
2023-04-16T01:35:15.821Z,0.4984
2023-04-16T01:36:19.731Z,0.5006
2023-04-16T01:37:23.617Z,0.4980
2023-04-16T01:38:27.515Z,0.4904
2023-04-16T01:39:31.602Z,0.4888
2023-04-16T01:40:35.511Z,0.4882
2023-04-16T01:41:39.406Z,0.4915
2023-04-16T01:42:43.309Z,0.4917
2023-04-16T01:43:47.423Z,0.4909
2023-04-16T01:44:51.308Z,0.4957
2023-04-16T01:45:55.207Z,0.4968
2023-04-16T01:46:59.140Z,0.5005
2023-04-16T01:48:03.084Z,0.4995
2023-04-16T01:49:07.047Z,0.5022
2023-04-16T01:50:11.012Z,0.5049
2023-04-16T01:51:14.913Z,0.5141
2023-04-16T01:52:18.795Z,0.5168
2023-04-16T01:53:22.692Z,0.5191
2023-04-16T01:54:26.805Z,0.5179
2023-04-16T01:55:30.710Z,0.5189
2023-04-16T01:56:34.588Z,0.5185
2023-04-16T01:57:38.509Z,0.5202
2023-04-16T01:58:42.379Z,0.5206
2023-04-16T01:59:46.277Z,0.5200
2023-04-16T02:00:50.167Z,0.5147
2023-04-16T02:01:54.099Z,0.5197
2023-04-16T02:02:58.069Z,0.5228
2023-04-16T02:04:02.339Z,0.5248
2023-04-16T02:05:07.097Z,0.5224
2023-04-16T02:06:07.810Z,0.5259
2023-04-16T02:07:11.730Z,0.5237
2023-04-16T02:08:15.605Z,0.5239
2023-04-16T02:09:19.718Z,0.5233
2023-04-16T02:10:31.156Z,0.5223
2023-04-16T02:11:24.457Z,0.5203
2023-04-16T02:12:28.363Z,0.5220
2023-04-16T02:13:32.281Z,0.5222
2023-04-16T02:14:36.475Z,0.5221
2023-04-16T02:15:40.347Z,0.5216
2023-04-16T02:16:40.877Z,0.5167
2023-04-16T02:17:44.854Z,0.5166
2023-04-16T02:18:48.718Z,0.5171
2023-04-16T02:19:52.646Z,0.5164
2023-04-16T02:20:56.524Z,0.5146
2023-04-16T02:22:00.428Z,0.5111
2023-04-16T02:23:04.289Z,0.5150
2023-04-16T02:24:08.203Z,0.5131
2023-04-16T02:25:12.076Z,0.5096
2023-04-16T02:26:15.980Z,0.5100
2023-04-16T02:27:19.884Z,0.5016
2023-04-16T02:28:23.758Z,0.5062
2023-04-16T02:29:27.817Z,0.5017
2023-04-16T02:30:31.719Z,0.4995
2023-04-16T02:31:35.667Z,0.4979
2023-04-16T02:32:39.574Z,0.4948
2023-04-16T02:33:43.478Z,0.4928
2023-04-16T02:34:47.381Z,0.4906
2023-04-16T02:35:51.271Z,0.4901
2023-04-16T02:36:55.171Z,0.4919
2023-04-16T02:37:59.080Z,0.4968
2023-04-16T02:39:02.949Z,0.4957
2023-04-16T02:40:06.832Z,0.4933
2023-04-16T02:41:10.736Z,0.4846
2023-04-16T02:42:14.626Z,0.4851
2023-04-16T02:43:18.524Z,0.4836
2023-04-16T02:44:22.652Z,0.4822
2023-04-16T02:45:26.538Z,0.4804
2023-04-16T02:46:30.912Z,0.4787
2023-04-16T02:47:34.823Z,0.4774
2023-04-16T02:48:38.731Z,0.4740
2023-04-16T02:49:42.622Z,0.4715
2023-04-16T02:50:46.509Z,0.4708
2023-04-16T02:51:50.615Z,0.4713
2023-04-16T02:52:54.509Z,0.4733
2023-04-16T02:53:58.394Z,0.4693
2023-04-16T02:55:02.307Z,0.4680
2023-04-16T02:56:06.210Z,0.4688
2023-04-16T02:57:10.340Z,0.4679
2023-04-16T02:58:14.235Z,0.4676
2023-04-16T02:59:18.421Z,0.4665
2023-04-16T03:00:22.334Z,0.4657
2023-04-16T03:01:26.277Z,0.4647
2023-04-16T03:02:30.263Z,0.4638
2023-04-16T03:03:34.143Z,0.4597
2023-04-16T03:04:38.458Z,0.4560
2023-04-16T03:05:42.493Z,0.4583
2023-04-16T03:06:46.381Z,0.4589
2023-04-16T03:07:50.268Z,0.4547
2023-04-16T03:08:54.151Z,0.4543
2023-04-16T03:09:58.054Z,0.4564
2023-04-16T03:11:01.934Z,0.4561
2023-04-16T03:12:06.035Z,0.4575
2023-04-16T03:13:09.930Z,0.4612
2023-04-16T03:14:14.030Z,0.4589
2023-04-16T03:15:17.969Z,0.4587
2023-04-16T03:16:22.104Z,0.4604
2023-04-16T03:17:26.028Z,0.4602
2023-04-16T03:18:29.899Z,0.4597
2023-04-16T03:19:34.004Z,0.4597
2023-04-16T03:20:37.923Z,0.4608
2023-04-16T03:21:41.837Z,0.4664
2023-04-16T03:22:45.749Z,0.4675
2023-04-16T03:23:49.647Z,0.4669
2023-04-16T03:24:53.558Z,0.4678
2023-04-16T03:25:57.486Z,0.4697
2023-04-16T03:27:01.609Z,0.4654
2023-04-16T03:28:05.513Z,0.4645
2023-04-16T03:29:05.860Z,0.4629
2023-04-16T03:30:09.758Z,0.4613
2023-04-16T03:31:13.931Z,0.4600
2023-04-16T03:32:17.858Z,0.4591
2023-04-16T03:33:21.736Z,0.4614
2023-04-16T03:34:25.626Z,0.4618
2023-04-16T03:35:29.532Z,0.4652
2023-04-16T03:36:33.674Z,0.4653
2023-04-16T03:37:37.573Z,0.4647
2023-04-16T03:38:41.484Z,0.4639
2023-04-16T03:39:45.623Z,0.4646
2023-04-16T03:40:49.486Z,0.4645
2023-04-16T03:41:53.414Z,0.4632
2023-04-16T03:42:57.300Z,0.4616
2023-04-16T03:44:01.405Z,0.4631
2023-04-16T03:45:05.316Z,0.4660
2023-04-16T03:46:09.243Z,0.4630
2023-04-16T03:47:13.367Z,0.4610
2023-04-16T03:48:17.267Z,0.4628
2023-04-16T03:49:21.358Z,0.4635
2023-04-16T03:50:25.296Z,0.4225
2023-04-16T03:51:29.149Z,0.4587
2023-04-16T03:52:33.051Z,0.4541
2023-04-16T03:53:36.921Z,0.4516
2023-04-16T03:54:40.824Z,0.4535
2023-04-16T03:55:44.692Z,0.4528
2023-04-16T03:56:48.892Z,0.4522
2023-04-16T03:57:52.811Z,0.4525
2023-04-16T03:58:56.699Z,0.4481
2023-04-16T04:00:00.569Z,0.4478
2023-04-16T04:01:04.480Z,0.4468
2023-04-16T04:02:08.461Z,0.4464
2023-04-16T04:03:12.654Z,0.4447
2023-04-16T04:04:16.911Z,0.4442
2023-04-16T04:05:20.821Z,0.4443
2023-04-16T04:06:24.744Z,0.4442
2023-04-16T04:07:28.632Z,0.4409
2023-04-16T04:08:32.532Z,0.4434
2023-04-16T04:09:36.637Z,0.4437
2023-04-16T04:10:40.530Z,0.4465
2023-04-16T04:11:44.693Z,0.4468
2023-04-16T04:12:48.568Z,0.4497
2023-04-16T04:13:52.465Z,0.4499
2023-04-16T04:14:56.349Z,0.4496
2023-04-16T04:16:00.260Z,0.4505
2023-04-16T04:17:04.143Z,0.4496
2023-04-16T04:18:08.044Z,0.4472
2023-04-16T04:19:12.338Z,0.4460
2023-04-16T04:20:16.243Z,0.4472
2023-04-16T04:21:20.153Z,0.4482
2023-04-16T04:22:24.067Z,0.4498
2023-04-16T04:23:27.948Z,0.4486
2023-04-16T04:24:28.291Z,0.4477
2023-04-16T04:25:32.172Z,0.4462
2023-04-16T04:26:36.132Z,0.4450
2023-04-16T04:27:39.971Z,0.4453
2023-04-16T04:28:43.847Z,0.4469
2023-04-16T04:29:47.958Z,0.4475
2023-04-16T04:30:51.845Z,0.4448
2023-04-16T04:31:55.993Z,0.4457
2023-04-16T04:32:59.945Z,0.4501
2023-04-16T04:34:04.128Z,0.4459
2023-04-16T04:35:08.013Z,0.4419
2023-04-16T04:36:11.891Z,0.4435
2023-04-16T04:37:15.791Z,0.4468
2023-04-16T04:38:19.675Z,0.4460
2023-04-16T04:39:23.555Z,0.4437
2023-04-16T04:40:27.478Z,0.4424
2023-04-16T04:41:31.585Z,0.4458
2023-04-16T04:42:35.479Z,0.4427
2023-04-16T04:43:39.391Z,0.4427
2023-04-16T04:44:43.301Z,0.4470
2023-04-16T04:45:47.300Z,0.4500
2023-04-16T04:46:51.459Z,0.4494
2023-04-16T04:47:55.391Z,0.4489
2023-04-16T04:48:59.502Z,0.4453
2023-04-16T04:50:03.449Z,0.4465
2023-04-16T04:51:07.333Z,0.4469
2023-04-16T04:52:11.243Z,0.4492
2023-04-16T04:53:15.200Z,0.4473
2023-04-16T04:54:19.060Z,0.4457
2023-04-16T04:55:22.968Z,0.4458
2023-04-16T04:56:26.907Z,0.4468
2023-04-16T04:57:30.809Z,0.4470
2023-04-16T04:58:34.922Z,0.4470
2023-04-16T04:59:38.812Z,0.4495
2023-04-16T05:00:42.691Z,0.4491
2023-04-16T05:01:46.881Z,0.4488
2023-04-16T05:02:50.906Z,0.4490
2023-04-16T05:03:55.139Z,0.4474
2023-04-16T05:04:59.044Z,0.4438
2023-04-16T05:06:02.930Z,0.4404
2023-04-16T05:07:06.827Z,0.4448
2023-04-16T05:08:10.710Z,0.4492
2023-04-16T05:09:14.600Z,0.4451
2023-04-16T05:10:18.482Z,0.4469
2023-04-16T05:11:22.589Z,0.4472
2023-04-16T05:12:26.480Z,0.4450
2023-04-16T05:13:30.367Z,0.4440
2023-04-16T05:14:34.257Z,0.4391
2023-04-16T05:15:38.131Z,0.4393
2023-04-16T05:16:42.019Z,0.4408
2023-04-16T05:17:45.909Z,0.4385
2023-04-16T05:18:49.838Z,0.4347
2023-04-16T05:19:53.756Z,0.4349
2023-04-16T05:20:57.619Z,0.4346
2023-04-16T05:22:01.493Z,0.4359
2023-04-16T05:23:05.405Z,0.4385
2023-04-16T05:24:09.706Z,0.4406
2023-04-16T05:25:13.591Z,0.4443
2023-04-16T05:26:17.688Z,0.4428
2023-04-16T05:27:21.561Z,0.4437
2023-04-16T05:28:25.458Z,0.4462
2023-04-16T05:29:29.341Z,0.4515
2023-04-16T05:30:33.266Z,0.4510
2023-04-16T05:31:37.334Z,0.4542
2023-04-16T05:32:41.267Z,0.4519
2023-04-16T05:33:45.421Z,0.4547
2023-04-16T05:34:49.291Z,0.4538
2023-04-16T05:35:53.204Z,0.4569
2023-04-16T05:36:57.105Z,0.4607
2023-04-16T05:38:01.007Z,0.4608
2023-04-16T05:39:05.148Z,0.4606
2023-04-16T05:40:09.031Z,0.4617
2023-04-16T05:41:12.929Z,0.4601
2023-04-16T05:42:16.848Z,0.4555
2023-04-16T05:43:20.736Z,0.4560
2023-04-16T05:44:24.661Z,0.4572
2023-04-16T05:45:28.545Z,0.4585
2023-04-16T05:46:32.771Z,0.4577
2023-04-16T05:47:36.738Z,0.4591
2023-04-16T05:48:40.813Z,0.4638
2023-04-16T05:49:44.858Z,0.4627
2023-04-16T05:50:48.729Z,0.4626
2023-04-16T05:51:52.635Z,0.4629
2023-04-16T05:52:56.537Z,0.4594
2023-04-16T05:54:00.679Z,0.4584
2023-04-16T05:55:04.602Z,0.4608
2023-04-16T05:56:08.725Z,0.4609
2023-04-16T05:57:12.624Z,0.4590
2023-04-16T05:58:16.496Z,0.4571
2023-04-16T05:59:20.385Z,0.4585
2023-04-16T06:00:24.280Z,0.4567
2023-04-16T06:01:28.425Z,0.4552
2023-04-16T06:02:32.427Z,0.4548
2023-04-16T06:03:36.720Z,0.4546
2023-04-16T06:04:40.634Z,0.4526
2023-04-16T06:05:44.571Z,0.4538
2023-04-16T06:06:48.423Z,0.4561
2023-04-16T06:07:52.323Z,0.4531
2023-04-16T06:08:56.207Z,0.4556
2023-04-16T06:10:00.110Z,0.4502
2023-04-16T06:11:04.232Z,0.4484
2023-04-16T06:12:08.158Z,0.4492
2023-04-16T06:13:12.054Z,0.4470
2023-04-16T06:14:16.165Z,0.4487
2023-04-16T06:15:20.069Z,0.4485
2023-04-16T06:16:24.015Z,0.4468
2023-04-16T06:17:27.915Z,0.4481
2023-04-16T06:18:32.030Z,0.4478
2023-04-16T06:19:35.916Z,0.4455
2023-04-16T06:20:39.824Z,0.4431
2023-04-16T06:21:43.730Z,0.4404
2023-04-16T06:22:47.603Z,0.4389
2023-04-16T06:23:51.853Z,0.4385
2023-04-16T06:24:55.746Z,0.4402
2023-04-16T06:25:59.624Z,0.4436
2023-04-16T06:27:03.664Z,0.4422
2023-04-16T06:28:07.563Z,0.4411
2023-04-16T06:29:11.765Z,0.4389
2023-04-16T06:30:15.724Z,0.4379
2023-04-16T06:31:19.879Z,0.4369
2023-04-16T06:32:23.816Z,0.4355
2023-04-16T06:33:27.725Z,0.4356
2023-04-16T06:34:31.623Z,0.4337
2023-04-16T06:35:35.509Z,0.4342
2023-04-16T06:36:39.408Z,0.4372
2023-04-16T06:37:43.306Z,0.4387
2023-04-16T06:38:47.178Z,0.4328
2023-04-16T06:39:51.053Z,0.4290
2023-04-16T06:40:55.158Z,0.4299
2023-04-16T06:41:59.055Z,0.4265
2023-04-16T06:43:02.935Z,0.4237
2023-04-16T06:44:06.830Z,0.4248
2023-04-16T06:45:10.699Z,0.4236
2023-04-16T06:46:14.828Z,0.4215
2023-04-16T06:47:18.766Z,0.4198
2023-04-16T06:48:22.910Z,0.4218
2023-04-16T06:49:26.814Z,0.4216
2023-04-16T06:50:30.696Z,0.4225
2023-04-16T06:51:34.587Z,0.4247
2023-04-16T06:52:38.490Z,0.4256
2023-04-16T06:53:42.616Z,0.4251
2023-04-16T06:54:46.506Z,0.4238
2023-04-16T06:55:50.390Z,0.4242
2023-04-16T06:56:54.308Z,0.4246
2023-04-16T06:57:58.198Z,0.4225
2023-04-16T06:59:02.344Z,0.4261
2023-04-16T07:00:06.249Z,0.4263
2023-04-16T07:01:10.405Z,0.4287
2023-04-16T07:02:14.380Z,0.4285
2023-04-16T07:03:18.518Z,0.4312
2023-04-16T07:04:22.491Z,0.4326
2023-04-16T07:05:26.377Z,0.4336
2023-04-16T07:06:30.286Z,0.4347
2023-04-16T07:07:34.184Z,0.4360
2023-04-16T07:08:38.418Z,0.4355
2023-04-16T07:09:42.301Z,0.4318
2023-04-16T07:10:46.415Z,0.4347
2023-04-16T07:11:50.322Z,0.4373
2023-04-16T07:12:54.209Z,0.4368
2023-04-16T07:13:58.120Z,0.4369
2023-04-16T07:15:01.986Z,0.4376
2023-04-16T07:16:05.910Z,0.4395
2023-04-16T07:17:09.778Z,0.4406
2023-04-16T07:18:13.958Z,0.4406
2023-04-16T07:19:17.998Z,0.4435
2023-04-16T07:20:21.895Z,0.4460
2023-04-16T07:21:25.793Z,0.4473
2023-04-16T07:22:29.696Z,0.4447
2023-04-16T07:23:33.633Z,0.4421
2023-04-16T07:24:37.513Z,0.4420
2023-04-16T07:25:41.481Z,0.4416
2023-04-16T07:26:45.384Z,0.4441
2023-04-16T07:27:49.273Z,0.4468
2023-04-16T07:28:53.182Z,0.4445
2023-04-16T07:29:57.084Z,0.4449
2023-04-16T07:31:00.974Z,0.4478
2023-04-16T07:32:04.990Z,0.4474
2023-04-16T07:33:09.050Z,0.4444
2023-04-16T07:34:12.913Z,0.4432
2023-04-16T07:35:16.823Z,0.4471
2023-04-16T07:36:20.712Z,0.4493
2023-04-16T07:37:24.615Z,0.4470
2023-04-16T07:38:28.754Z,0.4487
2023-04-16T07:39:32.688Z,0.4519
2023-04-16T07:40:36.704Z,0.4512
2023-04-16T07:41:40.591Z,0.4490
2023-04-16T07:42:44.452Z,0.4508
2023-04-16T07:43:48.334Z,0.4509
2023-04-16T07:44:52.240Z,0.4486
2023-04-16T07:45:56.490Z,0.4489
2023-04-16T07:47:00.464Z,0.4507
2023-04-16T07:48:04.774Z,0.4525
2023-04-16T07:49:08.876Z,0.4547
2023-04-16T07:50:12.863Z,0.4515
2023-04-16T07:51:16.759Z,0.4500
2023-04-16T07:52:20.668Z,0.4503
2023-04-16T07:53:24.555Z,0.4520
2023-04-16T07:54:29.175Z,0.4529
2023-04-16T07:55:33.108Z,0.4488
2023-04-16T07:56:37.052Z,0.4480
2023-04-16T07:57:40.917Z,0.4484
2023-04-16T07:58:44.834Z,0.4520
2023-04-16T07:59:48.705Z,0.4526
2023-04-16T08:00:52.815Z,0.4528
2023-04-16T08:01:56.727Z,0.4560
2023-04-16T08:03:00.883Z,0.4559
2023-04-16T08:04:04.995Z,0.4534
2023-04-16T08:05:08.959Z,0.4527
2023-04-16T08:06:12.838Z,0.4520
2023-04-16T08:07:16.753Z,0.4539
2023-04-16T08:08:16.915Z,0.4545
2023-04-16T08:09:20.803Z,0.4526
2023-04-16T08:10:24.899Z,0.4515
2023-04-16T08:11:28.816Z,0.4501
2023-04-16T08:12:32.715Z,0.4537
2023-04-16T08:13:36.614Z,0.4541
2023-04-16T08:14:40.482Z,0.4521
2023-04-16T08:15:44.634Z,0.4498
2023-04-16T08:16:48.533Z,0.4478
2023-04-16T08:17:52.756Z,0.4493
2023-04-16T08:18:56.609Z,0.4520
2023-04-16T08:20:00.506Z,0.4518
2023-04-16T08:21:04.392Z,0.4531
2023-04-16T08:22:08.316Z,0.4503
2023-04-16T08:23:12.195Z,0.4470
2023-04-16T08:24:16.127Z,0.4446
2023-04-16T08:25:20.000Z,0.4450
2023-04-16T08:26:24.002Z,0.4452
2023-04-16T08:27:27.901Z,0.4449
2023-04-16T08:28:32.024Z,0.4465
2023-04-16T08:29:35.935Z,0.4465
2023-04-16T08:30:39.841Z,0.4451
2023-04-16T08:31:43.775Z,0.4471
2023-04-16T08:32:50.045Z,0.4470
2023-04-16T08:33:48.852Z,0.4472
2023-04-16T08:34:52.753Z,0.4437
2023-04-16T08:35:56.991Z,0.4434
2023-04-16T08:37:00.994Z,0.4423
2023-04-16T08:38:04.912Z,0.4423
2023-04-16T08:39:08.913Z,0.4414
2023-04-16T08:40:13.083Z,0.4439
2023-04-16T08:41:17.218Z,0.4447
2023-04-16T08:42:21.131Z,0.4462
2023-04-16T08:43:25.013Z,0.4477
2023-04-16T08:44:28.939Z,0.4476
2023-04-16T08:45:33.118Z,0.4492
2023-04-16T08:46:37.024Z,0.4483
2023-04-16T08:47:40.911Z,0.4492
2023-04-16T08:48:44.787Z,0.4488
2023-04-16T08:49:48.721Z,0.4495
2023-04-16T08:50:52.580Z,0.4477
2023-04-16T08:51:54.080Z,0.4490
2023-04-16T08:52:58.213Z,0.4496
2023-04-16T08:54:02.310Z,0.4465
2023-04-16T08:55:06.221Z,0.4450
2023-04-16T08:56:10.104Z,0.4432
2023-04-16T08:57:13.987Z,0.4421
2023-04-16T08:58:18.202Z,0.4361
2023-04-16T08:59:22.089Z,0.4367
2023-04-16T09:00:26.218Z,0.4352
2023-04-16T09:01:30.145Z,0.4331
2023-04-16T09:02:34.134Z,0.4337
2023-04-16T09:03:38.345Z,0.4343
2023-04-16T09:04:42.383Z,0.4352
2023-04-16T09:05:46.280Z,0.4355
2023-04-16T09:06:50.163Z,0.4340
2023-04-16T09:07:54.059Z,0.4354
2023-04-16T09:08:57.953Z,0.4395
2023-04-16T09:10:01.914Z,0.4395
2023-04-16T09:11:05.814Z,0.4369
2023-04-16T09:12:09.700Z,0.4359
2023-04-16T09:13:13.596Z,0.4363
2023-04-16T09:14:17.482Z,0.4343
2023-04-16T09:15:21.598Z,0.4334
2023-04-16T09:16:25.534Z,0.4347
2023-04-16T09:17:29.497Z,0.4356
2023-04-16T09:18:33.372Z,0.4378
2023-04-16T09:19:37.270Z,0.4375
2023-04-16T09:20:41.320Z,0.4388
2023-04-16T09:21:45.207Z,0.4414
2023-04-16T09:22:49.104Z,0.4428
2023-04-16T09:23:52.984Z,0.4417
2023-04-16T09:24:56.885Z,0.4428
2023-04-16T09:26:00.962Z,0.4460
2023-04-16T09:27:04.862Z,0.4444
2023-04-16T09:28:09.016Z,0.4405
2023-04-16T09:29:12.887Z,0.4407
2023-04-16T09:30:16.793Z,0.4395
2023-04-16T09:31:21.013Z,0.4405
2023-04-16T09:32:24.911Z,0.4404
2023-04-16T09:33:28.808Z,0.4413
2023-04-16T09:34:32.703Z,0.4430
2023-04-16T09:35:36.849Z,0.4440
2023-04-16T09:36:40.737Z,0.4432
2023-04-16T09:37:44.875Z,0.4396
2023-04-16T09:38:48.751Z,0.4385
2023-04-16T09:39:52.655Z,0.4369
2023-04-16T09:40:56.723Z,0.4385
2023-04-16T09:42:00.613Z,0.4402
2023-04-16T09:43:05.018Z,0.4393
2023-04-16T09:44:08.918Z,0.4381
2023-04-16T09:45:12.791Z,0.4351
2023-04-16T09:46:16.704Z,0.4344
2023-04-16T09:47:20.598Z,0.4314
2023-04-16T09:48:24.476Z,0.4316
2023-04-16T09:49:28.407Z,0.4313
2023-04-16T09:50:32.315Z,0.4311
2023-04-16T09:51:36.220Z,0.4295
2023-04-16T09:52:40.341Z,0.4327
2023-04-16T09:53:44.220Z,0.4360
2023-04-16T09:54:48.116Z,0.4372
2023-04-16T09:55:52.248Z,0.4366
2023-04-16T09:56:56.161Z,0.4364
2023-04-16T09:58:00.084Z,0.4357
2023-04-16T09:59:04.006Z,0.4346
2023-04-16T10:00:07.926Z,0.4353
2023-04-16T10:01:12.006Z,0.4343
2023-04-16T10:02:16.560Z,0.4328
2023-04-16T10:03:20.657Z,0.4267
2023-04-16T10:04:24.572Z,0.4262
2023-04-16T10:05:28.525Z,0.4299
2023-04-16T10:06:32.407Z,0.4275
2023-04-16T10:07:36.528Z,0.4244
2023-04-16T10:08:40.408Z,0.4260
2023-04-16T10:09:44.272Z,0.4258
2023-04-16T10:10:48.153Z,0.4255
2023-04-16T10:11:52.051Z,0.4297
2023-04-16T10:12:56.188Z,0.4290
2023-04-16T10:14:00.172Z,0.4308
2023-04-16T10:15:04.311Z,0.4350
2023-04-16T10:16:08.201Z,0.4354
2023-04-16T10:17:12.117Z,0.4380
2023-04-16T10:18:16.008Z,0.4387
2023-04-16T10:19:19.929Z,0.4380
2023-04-16T10:20:23.823Z,0.4380
2023-04-16T10:21:27.740Z,0.4384
2023-04-16T10:22:31.614Z,0.4420
2023-04-16T10:23:35.508Z,0.4403
2023-04-16T10:24:39.417Z,0.4405
2023-04-16T10:25:43.545Z,0.4358
2023-04-16T10:26:47.428Z,0.4361
2023-04-16T10:27:51.560Z,0.4378
2023-04-16T10:28:55.456Z,0.4380
2023-04-16T10:29:59.342Z,0.4356
2023-04-16T10:31:03.281Z,0.4346
2023-04-16T10:32:07.159Z,0.4360
2023-04-16T10:33:11.093Z,0.4360
2023-04-16T10:34:14.964Z,0.4362
2023-04-16T10:35:18.870Z,0.4360
2023-04-16T10:36:22.779Z,0.4369
2023-04-16T10:37:26.976Z,0.4380
2023-04-16T10:38:30.880Z,0.4403
2023-04-16T10:39:34.805Z,0.4387
2023-04-16T10:40:38.725Z,0.4377
2023-04-16T10:41:42.628Z,0.4380
2023-04-16T10:42:46.535Z,0.4376
2023-04-16T10:43:50.450Z,0.4399
2023-04-16T10:44:54.342Z,0.4394
2023-04-16T10:45:58.482Z,0.4393
2023-04-16T10:47:02.418Z,0.4422
2023-04-16T10:48:06.350Z,0.4434
2023-04-16T10:49:10.319Z,0.4418
2023-04-16T10:50:14.545Z,0.4425
2023-04-16T10:51:18.466Z,0.4426
2023-04-16T10:52:22.393Z,0.4425
2023-04-16T10:53:26.269Z,0.4401
2023-04-16T10:54:30.143Z,0.4403
2023-04-16T10:55:34.025Z,0.4395
2023-04-16T10:56:37.908Z,0.4411
2023-04-16T10:57:41.787Z,0.4414
2023-04-16T10:58:45.673Z,0.4423
2023-04-16T10:59:49.902Z,0.4449
2023-04-16T11:00:53.810Z,0.4444
2023-04-16T11:01:57.798Z,0.4452
2023-04-16T11:03:01.768Z,0.4417
2023-04-16T11:04:05.793Z,0.4423
2023-04-16T11:05:09.755Z,0.4442
2023-04-16T11:06:13.676Z,0.4434
2023-04-16T11:07:17.568Z,0.4399
2023-04-16T11:08:21.440Z,0.4400
2023-04-16T11:09:25.347Z,0.4395
2023-04-16T11:10:29.459Z,0.4400
2023-04-16T11:11:33.375Z,0.4381
2023-04-16T11:12:37.399Z,0.4371
2023-04-16T11:13:43.133Z,0.4381
2023-04-16T11:14:42.124Z,0.4384
2023-04-16T11:15:46.274Z,0.4347
2023-04-16T11:16:50.159Z,0.4354
2023-04-16T11:17:54.152Z,0.4362
2023-04-16T11:18:58.027Z,0.4327
2023-04-16T11:20:02.136Z,0.4298
2023-04-16T11:21:06.042Z,0.4295
2023-04-16T11:22:09.960Z,0.4306
2023-04-16T11:23:10.310Z,0.4265
2023-04-16T11:24:14.254Z,0.4241
2023-04-16T11:25:18.135Z,0.4251
2023-04-16T11:26:22.016Z,0.4282
2023-04-16T11:27:25.915Z,0.4308
2023-04-16T11:28:29.801Z,0.4317
2023-04-16T11:29:33.689Z,0.4352
2023-04-16T11:30:37.584Z,0.4337
2023-04-16T11:31:41.495Z,0.4333
2023-04-16T11:32:45.419Z,0.4320
2023-04-16T11:33:49.276Z,0.4315
2023-04-16T11:34:53.387Z,0.4330
2023-04-16T11:35:57.279Z,0.4385
2023-04-16T11:37:01.169Z,0.4430
2023-04-16T11:38:05.317Z,0.4430
2023-04-16T11:39:09.323Z,0.4420
2023-04-16T11:40:13.624Z,0.4438
2023-04-16T11:41:17.480Z,0.4488
2023-04-16T11:42:21.613Z,0.4495
2023-04-16T11:43:25.504Z,0.4519
2023-04-16T11:44:29.386Z,0.4498
2023-04-16T11:45:33.282Z,0.4472
2023-04-16T11:46:37.196Z,0.4529
2023-04-16T11:47:41.123Z,0.4570
2023-04-16T11:48:45.045Z,0.4578
2023-04-16T11:49:48.953Z,0.4562
2023-04-16T11:50:52.826Z,0.4549
2023-04-16T11:51:56.742Z,0.4478
2023-04-16T11:53:00.829Z,0.4449
2023-04-16T11:54:04.733Z,0.4430
2023-04-16T11:55:08.845Z,0.4372
2023-04-16T11:56:12.743Z,0.4330
2023-04-16T11:57:16.652Z,0.4291
2023-04-16T11:58:20.541Z,0.4254
2023-04-16T11:59:21.384Z,0.4268
2023-04-16T12:00:25.270Z,0.4279
2023-04-16T12:01:29.178Z,0.4280
2023-04-16T12:02:33.148Z,0.4283
2023-04-16T12:03:37.339Z,0.4235
2023-04-16T12:04:41.485Z,0.4252
2023-04-16T12:05:45.387Z,0.4240
2023-04-16T12:06:49.293Z,0.4253
2023-04-16T12:07:53.478Z,0.4255
2023-04-16T12:08:57.366Z,0.4231
2023-04-16T12:10:01.276Z,0.4196
2023-04-16T12:11:05.174Z,0.4186
2023-04-16T12:12:09.319Z,0.4261
2023-04-16T12:13:13.218Z,0.4316
2023-04-16T12:14:17.121Z,0.4309
2023-04-16T12:15:21.249Z,0.4275
2023-04-16T12:16:25.157Z,0.4277
2023-04-16T12:17:29.084Z,0.4296
2023-04-16T12:18:32.935Z,0.4330
2023-04-16T12:19:36.842Z,0.4336
2023-04-16T12:20:40.723Z,0.4388
2023-04-16T12:21:44.604Z,0.4395
2023-04-16T12:22:48.751Z,0.4405
2023-04-16T12:23:52.627Z,0.4368
2023-04-16T12:24:56.757Z,0.4359
2023-04-16T12:26:00.646Z,0.4343
2023-04-16T12:27:04.552Z,0.4312
2023-04-16T12:28:08.421Z,0.4295
2023-04-16T12:29:12.313Z,0.4285
2023-04-16T12:30:16.432Z,0.4304
2023-04-16T12:31:20.420Z,0.4302
2023-04-16T12:32:24.349Z,0.4333
2023-04-16T12:33:28.298Z,0.4367
2023-04-16T12:34:46.765Z,0.4401
2023-04-16T12:35:36.929Z,0.4430
2023-04-16T12:36:40.827Z,0.4461
2023-04-16T12:37:44.956Z,0.4442
2023-04-16T12:38:48.862Z,0.4465
2023-04-16T12:39:53.001Z,0.4473
2023-04-16T12:40:57.332Z,0.4483
2023-04-16T12:42:01.334Z,0.4516
2023-04-16T12:43:05.518Z,0.4493
2023-04-16T12:44:09.392Z,0.4427
2023-04-16T12:45:13.278Z,0.4396
2023-04-16T12:46:17.208Z,0.4452
2023-04-16T12:47:21.108Z,0.4527
2023-04-16T12:48:24.964Z,0.4552
2023-04-16T12:49:28.861Z,0.4628
2023-04-16T12:50:32.751Z,0.4618
2023-04-16T12:51:36.646Z,0.4609
2023-04-16T12:52:40.537Z,0.4614
2023-04-16T12:53:44.405Z,0.4599
2023-04-16T12:54:48.297Z,0.4559
2023-04-16T12:55:52.205Z,0.4527
2023-04-16T12:56:56.305Z,0.4532
2023-04-16T12:58:00.192Z,0.4531
2023-04-16T12:59:04.075Z,0.4579
2023-04-16T13:00:08.116Z,0.4581
2023-04-16T13:01:11.994Z,0.4566
2023-04-16T13:02:16.102Z,0.4589
2023-04-16T13:03:20.086Z,0.4625
2023-04-16T13:04:25.668Z,0.4576
2023-04-16T13:05:24.540Z,0.4557
2023-04-16T13:06:28.443Z,0.4509
2023-04-16T13:07:32.592Z,0.4482
2023-04-16T13:08:36.492Z,0.4492
2023-04-16T13:09:40.550Z,0.4471
2023-04-16T13:10:44.482Z,0.4517
2023-04-16T13:11:48.374Z,0.4486
2023-04-16T13:12:52.284Z,0.4532
2023-04-16T13:13:56.188Z,0.4544
2023-04-16T13:15:00.072Z,0.4511
2023-04-16T13:16:04.055Z,0.4518
2023-04-16T13:17:08.223Z,0.4536